»·PEaware :: N369FK KBUR-KMYF

N369FK :: KBUR-KMYF

FLIGHT INFORMATION

Flight Status: Arrived
Operator: Privately registered:
United States
More flights under this callsign
Pilot: Erik B. (9150)
Aircraft: ECLIPSE 500
(EA50)
More flights by this aircraft type
Origin: KBUR Bob Hope-Burbank
United States
Destination: KMYF Montgomery
United States
More flights between these airports :: More routes between these airports
Route: TWINE V518 KIMMO V459 SLI SLI171 LAX118 CARDI MZB320 MZB
File this flight plan on PilotEdge
Remarks: TEC route BURP30B
Altitude:
(Current/Filed)
11,000ft
Speed:
(Current/Filed)
250kts
Departed: 02-Oct-18 02:25 PM
Arrived: 02-Oct-18 03:11 PM
Distance/Time
Traveled:
103nm/0:46
Distance/Time
To Go:
Arrived

Flight Plot

Page will automatically refresh every two minutes.

Flight plan parsing failed; only flown route is shown


Map Options




Map Legend


Flown Route
Filed Route
Departure Airport
Arrival Airport
Navaid (VOR, NDB)
Fix

Horizontal Profiles

Position Reports

Time Latitude Longitude Heading Altitude Ground
Speed
02-Oct-18 13:58 34.200203 -118.358746 263 720ft 0kts
02-Oct-18 13:59 34.200203 -118.358746 263 720ft 0kts
02-Oct-18 14:00 34.200203 -118.358746 263 720ft 0kts
02-Oct-18 14:01 34.200203 -118.358746 263 720ft 0kts
02-Oct-18 14:02 34.200203 -118.358746 263 720ft 0kts
02-Oct-18 14:03 34.200203 -118.358746 263 720ft 0kts
02-Oct-18 14:04 34.200203 -118.358746 263 720ft 0kts
02-Oct-18 14:05 34.200203 -118.358746 263 720ft 0kts
02-Oct-18 14:06 34.200203 -118.358746 263 720ft 0kts
02-Oct-18 14:07 34.200203 -118.358746 263 720ft 0kts
02-Oct-18 14:08 34.200203 -118.358746 263 720ft 0kts
02-Oct-18 14:09 34.200203 -118.358746 263 720ft 0kts
02-Oct-18 14:10 34.200203 -118.358746 263 720ft 0kts
02-Oct-18 14:11 34.200203 -118.358746 263 720ft 0kts
02-Oct-18 14:12 34.200203 -118.358746 263 720ft 0kts
02-Oct-18 14:13 34.200203 -118.358746 263 720ft 0kts
02-Oct-18 14:14 34.200203 -118.358746 263 720ft 0kts
02-Oct-18 14:15 34.200203 -118.358746 263 720ft 0kts
02-Oct-18 14:16 34.200203 -118.358746 263 720ft 0kts
02-Oct-18 14:17 34.200203 -118.358746 263 720ft 0kts
02-Oct-18 14:18 34.200203 -118.358746 263 720ft 0kts
02-Oct-18 14:19 34.200203 -118.358746 263 720ft 0kts
02-Oct-18 14:20 34.200202 -118.358753 263 720ft 0kts
02-Oct-18 14:21 34.200197 -118.358265 347 719ft 12kts
02-Oct-18 14:22 34.203466 -118.359166 346 733ft 14kts
02-Oct-18 14:23 34.207492 -118.360292 346 748ft 14kts
02-Oct-18 14:24 34.211195 -118.361306 347 766ft 12kts
02-Oct-18 14:25 34.212045 -118.361386 33 768ft 0kts
02-Oct-18 14:26 34.211637 -118.360269 167 765ft 19kts
02-Oct-18 14:27 34.184607 -118.353733 171 1420ft 149kts
02-Oct-18 14:28 34.153028 -118.315636 122 3391ft 187kts
02-Oct-18 14:29 34.113087 -118.290433 229 5406ft 211kts
02-Oct-18 14:30 34.146271 -118.334184 352 7422ft 239kts
02-Oct-18 14:31 34.213345 -118.342001 12 9409ft 248kts
02-Oct-18 14:32 34.214608 -118.282710 158 11003ft 250kts
02-Oct-18 14:33 34.153719 -118.245883 171 11011ft 245kts
02-Oct-18 14:34 34.088346 -118.222438 162 11010ft 247kts
02-Oct-18 14:35 34.025930 -118.191487 159 11009ft 248kts
02-Oct-18 14:36 33.975842 -118.164217 158 11006ft 248kts
02-Oct-18 14:37 33.924713 -118.135483 157 11002ft 248kts
02-Oct-18 14:38 33.867026 -118.102630 157 11006ft 248kts
02-Oct-18 14:39 33.804771 -118.067008 157 11007ft 248kts
02-Oct-18 14:40 33.748168 -118.019163 144 10958ft 251kts
02-Oct-18 14:41 33.694778 -117.967079 144 10959ft 251kts
02-Oct-18 14:42 33.640719 -117.914047 144 10961ft 251kts
02-Oct-18 14:43 33.587629 -117.861924 144 10963ft 251kts
02-Oct-18 14:44 33.533970 -117.809281 144 10964ft 251kts
02-Oct-18 14:45 33.479842 -117.756246 144 10965ft 251kts
02-Oct-18 14:46 33.424053 -117.701656 143 10934ft 263kts
02-Oct-18 14:47 33.369474 -117.648243 144 11504ft 251kts
02-Oct-18 14:48 33.311001 -117.591353 143 10972ft 273kts
02-Oct-18 14:49 33.252067 -117.534031 143 10738ft 280kts
02-Oct-18 14:50 33.200238 -117.483652 143 9874ft 261kts
02-Oct-18 14:51 33.163199 -117.447618 144 9098ft 203kts
02-Oct-18 14:52 33.124323 -117.416025 157 8255ft 200kts
02-Oct-18 14:53 33.074501 -117.387765 158 7252ft 197kts
02-Oct-18 14:54 33.025314 -117.360201 158 6982ft 197kts
02-Oct-18 14:55 32.976220 -117.332855 159 6462ft 195kts
02-Oct-18 14:56 32.930952 -117.307700 159 5434ft 173kts
02-Oct-18 14:57 32.888691 -117.284300 159 4985ft 174kts
02-Oct-18 14:58 32.865309 -117.237742 101 4984ft 183kts
02-Oct-18 14:59 32.858061 -117.178011 101 4995ft 183kts
02-Oct-18 15:00 32.850935 -117.118149 101 4997ft 183kts
02-Oct-18 15:01 32.843717 -117.058236 101 4997ft 182kts
02-Oct-18 15:02 32.832109 -117.000032 111 4996ft 180kts
02-Oct-18 15:03 32.815600 -116.943782 128 4994ft 177kts
02-Oct-18 15:04 32.785177 -116.897638 131 4068ft 166kts
02-Oct-18 15:05 32.757698 -116.867648 190 3796ft 115kts
02-Oct-18 15:06 32.738542 -116.902518 262 3795ft 156kts
02-Oct-18 15:07 32.747727 -116.952879 283 3631ft 148kts
02-Oct-18 15:08 32.761316 -116.997966 289 2912ft 141kts
02-Oct-18 15:09 32.776420 -117.038524 291 2037ft 136kts
02-Oct-18 15:10 32.792102 -117.076496 292 1526ft 110kts
02-Oct-18 15:11 32.804593 -117.109417 289 987ft 108kts
02-Oct-18 15:12 32.816101 -117.139463 293 420ft 81kts
02-Oct-18 15:13 32.817395 -117.144941 202 413ft 4kts
02-Oct-18 15:14 32.815770 -117.144363 114 413ft 11kts
02-Oct-18 15:15 32.815005 -117.142414 114 415ft 10kts

Navigation Log

Ident Type
Flight plan parsing failed, navigation log unavailable